createdAt,value
2018-06-21T00:00:07.716Z,933.72
2018-06-21T00:00:20.704Z,933.74
2018-06-21T00:00:33.604Z,933.73
2018-06-21T00:00:46.118Z,933.74
2018-06-21T00:00:58.590Z,933.72
2018-06-21T00:01:11.133Z,933.7
2018-06-21T00:01:23.150Z,933.72
2018-06-21T00:01:36.098Z,933.72
2018-06-21T00:01:47.622Z,933.68
2018-06-21T00:02:00.565Z,933.72
2018-06-21T00:02:13.077Z,933.72
2018-06-21T00:02:26.058Z,933.73
2018-06-21T00:02:38.583Z,933.72
2018-06-21T00:02:50.612Z,933.74
2018-06-21T00:03:03.144Z,933.71
2018-06-21T00:03:15.673Z,933.73
2018-06-21T00:03:28.615Z,933.72
2018-06-21T00:03:41.566Z,933.71
2018-06-21T00:03:54.551Z,933.72
2018-06-21T00:04:07.004Z,933.74
2018-06-21T00:04:19.535Z,933.71
2018-06-21T00:04:32.518Z,933.75
2018-06-21T00:04:45.008Z,933.71
2018-06-21T00:04:57.896Z,933.74
2018-06-21T00:05:10.369Z,933.72
2018-06-21T00:05:22.386Z,933.75
2018-06-21T00:05:34.878Z,933.75
2018-06-21T00:05:47.422Z,933.72
2018-06-21T00:06:00.367Z,933.72
2018-06-21T00:06:12.450Z,933.78
2018-06-21T00:06:25.426Z,933.74
2018-06-21T00:06:38.376Z,933.73
2018-06-21T00:06:50.842Z,933.73
2018-06-21T00:07:03.350Z,933.74
2018-06-21T00:07:15.392Z,933.75
2018-06-21T00:07:26.960Z,933.74
2018-06-21T00:07:39.491Z,933.77
2018-06-21T00:07:51.546Z,933.74
2018-06-21T00:08:04.527Z,933.75
2018-06-21T00:08:17.053Z,933.72
2018-06-21T00:08:30.525Z,933.75
2018-06-21T00:08:43.437Z,933.74
2018-06-21T00:08:55.449Z,933.72
2018-06-21T00:09:07.970Z,933.72
2018-06-21T00:09:20.055Z,933.74
2018-06-21T00:09:32.554Z,933.74
2018-06-21T00:09:45.075Z,933.72
2018-06-21T00:09:58.075Z,933.73
2018-06-21T00:10:11.042Z,933.7
2018-06-21T00:10:23.507Z,933.7
2018-06-21T00:10:36.017Z,933.68
2018-06-21T00:10:48.576Z,933.7
2018-06-21T00:11:01.091Z,933.71
2018-06-21T00:11:14.106Z,933.7
2018-06-21T00:11:26.689Z,933.72
2018-06-21T00:11:39.212Z,933.71
2018-06-21T00:11:51.741Z,933.72
2018-06-21T00:12:04.697Z,933.69
2018-06-21T00:12:17.167Z,933.7
2018-06-21T00:12:29.705Z,933.73
2018-06-21T00:12:41.760Z,933.7
2018-06-21T00:12:54.717Z,933.74
2018-06-21T00:13:06.798Z,933.7
2018-06-21T00:13:19.799Z,933.67
2018-06-21T00:13:32.749Z,933.69
2018-06-21T00:13:44.745Z,933.7
2018-06-21T00:13:57.243Z,933.69
2018-06-21T00:14:10.227Z,933.69
2018-06-21T00:14:22.725Z,933.7
2018-06-21T00:14:35.259Z,933.71
2018-06-21T00:14:48.263Z,933.72
2018-06-21T00:15:01.236Z,933.72
2018-06-21T00:15:13.224Z,933.7
2018-06-21T00:15:26.171Z,933.73
2018-06-21T00:15:38.655Z,933.73
2018-06-21T00:15:51.601Z,933.68
2018-06-21T00:16:03.586Z,933.75
2018-06-21T00:16:16.568Z,933.72
2018-06-21T00:16:29.507Z,933.7
2018-06-21T00:16:42.503Z,933.7
2018-06-21T00:16:55.487Z,933.72
2018-06-21T00:17:07.540Z,933.72
2018-06-21T00:17:20.492Z,933.71
2018-06-21T00:17:32.531Z,933.71
2018-06-21T00:17:45.485Z,933.68
2018-06-21T00:17:57.945Z,933.7
2018-06-21T00:18:10.878Z,933.73
2018-06-21T00:18:22.906Z,933.74
2018-06-21T00:18:36.224Z,933.75
2018-06-21T00:18:49.396Z,933.75
2018-06-21T00:19:01.868Z,933.71
2018-06-21T00:19:14.375Z,933.71
2018-06-21T00:19:27.317Z,933.72
2018-06-21T00:19:40.310Z,933.73
2018-06-21T00:19:52.835Z,933.72
2018-06-21T00:20:05.392Z,933.75
2018-06-21T00:20:17.887Z,933.74
2018-06-21T00:20:30.407Z,933.75
2018-06-21T00:20:42.442Z,933.76
2018-06-21T00:20:54.940Z,933.77
2018-06-21T00:21:07.915Z,933.77
2018-06-21T00:21:20.422Z,933.77
2018-06-21T00:21:33.311Z,933.77
2018-06-21T00:21:46.273Z,933.75
2018-06-21T00:21:59.202Z,933.76
2018-06-21T00:22:12.169Z,933.74
2018-06-21T00:22:25.160Z,933.73
2018-06-21T00:22:37.671Z,933.75
2018-06-21T00:22:50.620Z,933.76
2018-06-21T00:23:02.661Z,933.77
2018-06-21T00:23:15.108Z,933.75
2018-06-21T00:23:28.036Z,933.76
2018-06-21T00:23:40.754Z,933.76
2018-06-21T00:23:53.173Z,933.75
2018-06-21T00:24:05.699Z,933.73
2018-06-21T00:24:17.715Z,933.76
2018-06-21T00:24:30.163Z,933.75
2018-06-21T00:24:42.609Z,933.74
2018-06-21T00:24:55.181Z,933.75
2018-06-21T00:25:06.737Z,933.73
2018-06-21T00:25:18.762Z,933.76
2018-06-21T00:25:31.201Z,933.73
2018-06-21T00:25:44.200Z,933.75
2018-06-21T00:25:56.739Z,933.75
2018-06-21T00:26:08.836Z,933.77
2018-06-21T00:26:21.748Z,933.77
2018-06-21T00:26:34.756Z,933.75
2018-06-21T00:26:47.765Z,933.76
2018-06-21T00:27:00.231Z,933.73
2018-06-21T00:27:12.716Z,933.74
2018-06-21T00:27:25.704Z,933.73
2018-06-21T00:27:38.614Z,933.77
2018-06-21T00:27:50.639Z,933.74
2018-06-21T00:28:03.187Z,933.73
2018-06-21T00:28:16.141Z,933.71
2018-06-21T00:28:27.703Z,933.73
2018-06-21T00:28:40.621Z,933.74
2018-06-21T00:28:53.557Z,933.74
2018-06-21T00:29:05.598Z,933.72
2018-06-21T00:29:18.227Z,933.71
2018-06-21T00:29:30.962Z,933.7
2018-06-21T00:29:43.037Z,933.72
2018-06-21T00:29:55.435Z,933.72
2018-06-21T00:30:07.399Z,933.72
2018-06-21T00:30:19.936Z,933.7
2018-06-21T00:30:32.001Z,933.7
2018-06-21T00:30:44.499Z,933.7
2018-06-21T00:30:57.447Z,933.7
2018-06-21T00:31:10.389Z,933.72
2018-06-21T00:31:23.357Z,933.69
2018-06-21T00:31:35.850Z,933.72
2018-06-21T00:31:48.377Z,933.71
2018-06-21T00:32:01.297Z,933.73
2018-06-21T00:32:14.194Z,933.74
2018-06-21T00:32:26.700Z,933.71
2018-06-21T00:32:39.189Z,933.76
2018-06-21T00:32:52.187Z,933.74
2018-06-21T00:33:05.204Z,933.77
2018-06-21T00:33:18.109Z,933.76
2018-06-21T00:33:30.583Z,933.74
2018-06-21T00:33:42.601Z,933.75
2018-06-21T00:33:55.072Z,933.75
2018-06-21T00:34:08.045Z,933.76
2018-06-21T00:34:20.087Z,933.77
2018-06-21T00:34:32.626Z,933.77
2018-06-21T00:34:45.111Z,933.73
2018-06-21T00:34:58.102Z,933.78
2018-06-21T00:35:10.584Z,933.74
2018-06-21T00:35:23.110Z,933.79
2018-06-21T00:35:35.602Z,933.8
2018-06-21T00:35:48.137Z,933.82
2018-06-21T00:36:00.143Z,933.83
2018-06-21T00:36:12.670Z,933.79
2018-06-21T00:36:25.125Z,933.8
2018-06-21T00:36:37.177Z,933.82
2018-06-21T00:36:49.681Z,933.77
2018-06-21T00:37:01.754Z,933.81
2018-06-21T00:37:14.237Z,933.83
2018-06-21T00:37:27.267Z,933.81
2018-06-21T00:37:40.196Z,933.82
2018-06-21T00:37:52.729Z,933.8
2018-06-21T00:38:05.240Z,933.78
2018-06-21T00:38:17.690Z,933.8
2018-06-21T00:38:29.737Z,933.81
2018-06-21T00:38:43.498Z,933.79
2018-06-21T00:38:55.987Z,933.8
2018-06-21T00:39:08.452Z,933.81
2018-06-21T00:39:20.905Z,933.78
2018-06-21T00:39:33.835Z,933.79
2018-06-21T00:39:46.316Z,933.76
2018-06-21T00:39:58.815Z,933.81
2018-06-21T00:40:11.341Z,933.78
2018-06-21T00:40:23.376Z,933.78
2018-06-21T00:40:36.357Z,933.81
2018-06-21T00:40:48.365Z,933.78
2018-06-21T00:41:00.835Z,933.76
2018-06-21T00:41:12.923Z,933.76
2018-06-21T00:41:25.452Z,933.78
2018-06-21T00:41:38.405Z,933.76
2018-06-21T00:41:50.902Z,933.79
2018-06-21T00:42:02.921Z,933.81
2018-06-21T00:42:15.457Z,933.78
2018-06-21T00:42:27.480Z,933.76
2018-06-21T00:42:40.435Z,933.74
2018-06-21T00:42:53.359Z,933.76
2018-06-21T00:43:05.838Z,933.77
2018-06-21T00:43:18.339Z,933.81
2018-06-21T00:43:30.877Z,933.76
2018-06-21T00:43:43.351Z,933.77
2018-06-21T00:43:55.857Z,933.78
2018-06-21T00:44:07.897Z,933.75
2018-06-21T00:44:20.366Z,933.77
2018-06-21T00:44:33.308Z,933.79
2018-06-21T00:44:45.799Z,933.75
2018-06-21T00:44:57.870Z,933.79
2018-06-21T00:45:09.913Z,933.78
2018-06-21T00:45:22.470Z,933.76
2018-06-21T00:45:35.419Z,933.75
2018-06-21T00:45:47.454Z,933.79
2018-06-21T00:46:00.438Z,933.8
2018-06-21T00:46:13.428Z,933.79
2018-06-21T00:46:26.373Z,933.74
2018-06-21T00:46:38.863Z,933.72
2018-06-21T00:46:51.352Z,933.75
2018-06-21T00:47:03.830Z,933.8
2018-06-21T00:47:16.316Z,933.77
2018-06-21T00:47:29.300Z,933.78
2018-06-21T00:47:41.326Z,933.78
2018-06-21T00:47:53.825Z,933.76
2018-06-21T00:48:06.794Z,933.8
2018-06-21T00:48:18.868Z,933.81
2018-06-21T00:48:31.820Z,933.81
2018-06-21T00:48:44.348Z,933.83
2018-06-21T00:48:56.843Z,933.82
2018-06-21T00:49:09.828Z,933.82
2018-06-21T00:49:21.878Z,933.81
2018-06-21T00:49:34.356Z,933.82
2018-06-21T00:49:46.874Z,933.81
2018-06-21T00:49:59.855Z,933.82
2018-06-21T00:50:11.867Z,933.82
2018-06-21T00:50:24.798Z,933.81
2018-06-21T00:50:37.779Z,933.81
2018-06-21T00:50:50.301Z,933.8
2018-06-21T00:51:03.258Z,933.82
2018-06-21T00:51:15.759Z,933.81
2018-06-21T00:51:28.675Z,933.81
2018-06-21T00:51:41.180Z,933.8
2018-06-21T00:51:53.214Z,933.79
2018-06-21T00:52:06.186Z,933.82
2018-06-21T00:52:18.664Z,933.82
2018-06-21T00:52:31.670Z,933.8
2018-06-21T00:52:43.696Z,933.81
2018-06-21T00:52:56.620Z,933.79
2018-06-21T00:53:09.557Z,933.8
2018-06-21T00:53:22.524Z,933.81
2018-06-21T00:53:35.032Z,933.83
2018-06-21T00:53:48.177Z,933.82
2018-06-21T00:53:59.738Z,933.8
2018-06-21T00:54:12.729Z,933.82
2018-06-21T00:54:24.755Z,933.8
2018-06-21T00:54:37.246Z,933.83
2018-06-21T00:54:50.195Z,933.82
2018-06-21T00:55:02.681Z,933.82
2018-06-21T00:55:15.192Z,933.78
2018-06-21T00:55:27.718Z,933.77
2018-06-21T00:55:40.669Z,933.78
2018-06-21T00:55:52.709Z,933.83
2018-06-21T00:56:05.234Z,933.8
2018-06-21T00:56:17.726Z,933.79
2018-06-21T00:56:30.687Z,933.77
2018-06-21T00:56:43.600Z,933.81
2018-06-21T00:56:56.555Z,933.77
2018-06-21T00:57:09.053Z,933.78
2018-06-21T00:57:22.041Z,933.77
2018-06-21T00:57:34.509Z,933.8
2018-06-21T00:57:47.464Z,933.78
2018-06-21T00:58:00.430Z,933.76
2018-06-21T00:58:13.442Z,933.77
2018-06-21T00:58:25.453Z,933.79
2018-06-21T00:58:38.413Z,933.8
2018-06-21T00:58:50.917Z,933.8
2018-06-21T00:59:03.436Z,933.8
2018-06-21T00:59:15.922Z,933.82
2018-06-21T00:59:28.885Z,933.83
2018-06-21T00:59:41.362Z,933.82
2018-06-21T00:59:54.303Z,933.77
2018-06-21T01:00:06.830Z,933.79
2018-06-21T01:00:19.325Z,933.81
2018-06-21T01:00:32.256Z,933.82
2018-06-21T01:00:45.187Z,933.8
2018-06-21T01:00:57.266Z,933.8
2018-06-21T01:01:09.763Z,933.78
2018-06-21T01:01:22.709Z,933.79
2018-06-21T01:01:35.678Z,933.82
2018-06-21T01:01:48.186Z,933.8
2018-06-21T01:02:00.182Z,933.77
2018-06-21T01:02:12.644Z,933.78
2018-06-21T01:02:25.583Z,933.79
2018-06-21T01:02:38.578Z,933.8
2018-06-21T01:02:51.549Z,933.78
2018-06-21T01:03:04.532Z,933.81
2018-06-21T01:03:16.523Z,933.79
2018-06-21T01:03:29.045Z,933.81
2018-06-21T01:03:41.566Z,933.8
2018-06-21T01:03:54.512Z,933.8
2018-06-21T01:04:07.079Z,933.75
2018-06-21T01:04:20.057Z,933.8
2018-06-21T01:04:32.538Z,933.8
2018-06-21T01:04:45.525Z,933.81
2018-06-21T01:04:58.021Z,933.8
2018-06-21T01:05:09.635Z,933.81
2018-06-21T01:05:22.638Z,933.81
2018-06-21T01:05:35.593Z,933.81
2018-06-21T01:05:48.048Z,933.79
2018-06-21T01:06:01.013Z,933.77
2018-06-21T01:06:13.977Z,933.8
2018-06-21T01:06:26.521Z,933.79
2018-06-21T01:06:38.608Z,933.77
2018-06-21T01:06:51.586Z,933.8
2018-06-21T01:07:04.573Z,933.83
2018-06-21T01:07:17.035Z,933.79
2018-06-21T01:07:29.987Z,933.81
2018-06-21T01:07:42.955Z,933.81
2018-06-21T01:07:55.174Z,933.78
2018-06-21T01:08:07.814Z,933.76
2018-06-21T01:08:19.451Z,933.8
2018-06-21T01:08:32.489Z,933.81
2018-06-21T01:08:44.989Z,933.82
2018-06-21T01:08:58.362Z,933.78
2018-06-21T01:09:10.828Z,933.75
2018-06-21T01:09:23.320Z,933.81
2018-06-21T01:09:35.883Z,933.79
2018-06-21T01:09:48.455Z,933.77
2018-06-21T01:10:00.940Z,933.78
2018-06-21T01:10:13.439Z,933.75
2018-06-21T01:10:26.385Z,933.77
2018-06-21T01:10:39.352Z,933.76
2018-06-21T01:10:52.407Z,933.75
2018-06-21T01:11:04.442Z,933.74
2018-06-21T01:11:16.464Z,933.71
2018-06-21T01:11:29.532Z,933.71
2018-06-21T01:11:42.035Z,933.74
2018-06-21T01:11:55.183Z,933.73
2018-06-21T01:12:07.214Z,933.69
2018-06-21T01:12:20.148Z,933.73
2018-06-21T01:12:33.141Z,933.75
2018-06-21T01:12:46.092Z,933.71
2018-06-21T01:12:58.622Z,933.72
2018-06-21T01:13:11.132Z,933.7
2018-06-21T01:13:23.710Z,933.71
2018-06-21T01:13:36.644Z,933.72
2018-06-21T01:13:49.664Z,933.73
2018-06-21T01:14:02.349Z,933.7
2018-06-21T01:14:14.395Z,933.71
2018-06-21T01:14:26.443Z,933.68
2018-06-21T01:14:39.357Z,933.72
2018-06-21T01:14:51.393Z,933.71
2018-06-21T01:15:02.499Z,933.72
2018-06-21T01:15:15.024Z,933.71
2018-06-21T01:15:28.005Z,933.72
2018-06-21T01:15:40.517Z,933.73
2018-06-21T01:15:53.446Z,933.69
2018-06-21T01:16:06.425Z,933.75
2018-06-21T01:16:19.361Z,933.73
2018-06-21T01:16:31.414Z,933.74
2018-06-21T01:16:43.411Z,933.74
2018-06-21T01:16:55.931Z,933.75
2018-06-21T01:17:08.393Z,933.73
2018-06-21T01:17:21.311Z,933.72
2018-06-21T01:17:34.228Z,933.72
2018-06-21T01:17:47.162Z,933.72
2018-06-21T01:18:00.101Z,933.73
2018-06-21T01:18:13.066Z,933.73
2018-06-21T01:18:25.094Z,933.73
2018-06-21T01:18:37.540Z,933.72
2018-06-21T01:18:49.586Z,933.75
2018-06-21T01:19:02.545Z,933.76
2018-06-21T01:19:15.003Z,933.7
2018-06-21T01:19:27.001Z,933.72
2018-06-21T01:19:39.002Z,933.72
2018-06-21T01:19:51.923Z,933.76
2018-06-21T01:20:04.372Z,933.72
2018-06-21T01:20:17.365Z,933.73
2018-06-21T01:20:30.446Z,933.75
2018-06-21T01:20:42.064Z,933.71
2018-06-21T01:20:55.035Z,933.72
2018-06-21T01:21:07.542Z,933.71
2018-06-21T01:21:20.068Z,933.73
2018-06-21T01:21:33.212Z,933.7
2018-06-21T01:21:46.149Z,933.74
2018-06-21T01:21:58.617Z,933.75
2018-06-21T01:22:11.146Z,933.71
2018-06-21T01:22:23.607Z,933.69
2018-06-21T01:22:36.041Z,933.7
2018-06-21T01:22:48.013Z,933.71
2018-06-21T01:23:00.059Z,933.73
2018-06-21T01:23:12.066Z,933.73
2018-06-21T01:23:24.093Z,933.74
2018-06-21T01:23:37.050Z,933.72
2018-06-21T01:23:49.537Z,933.71
2018-06-21T01:24:02.252Z,933.75
2018-06-21T01:24:14.805Z,933.72
2018-06-21T01:24:26.805Z,933.73
2018-06-21T01:24:39.309Z,933.75
2018-06-21T01:24:52.270Z,933.75
2018-06-21T01:25:04.743Z,933.75
2018-06-21T01:25:17.678Z,933.75
2018-06-21T01:25:30.441Z,933.76
2018-06-21T01:25:43.507Z,933.74
2018-06-21T01:25:56.527Z,933.76
2018-06-21T01:26:09.028Z,933.76
2018-06-21T01:26:21.979Z,933.75
2018-06-21T01:26:34.041Z,933.75
2018-06-21T01:26:46.069Z,933.79
2018-06-21T01:26:59.049Z,933.74
2018-06-21T01:27:12.019Z,933.77
2018-06-21T01:27:25.011Z,933.76
2018-06-21T01:27:37.977Z,933.73
2018-06-21T01:27:51.016Z,933.74
2018-06-21T01:28:03.523Z,933.73
2018-06-21T01:28:15.596Z,933.75
2018-06-21T01:28:28.527Z,933.73
2018-06-21T01:28:41.073Z,933.71
2018-06-21T01:28:53.590Z,933.76
2018-06-21T01:29:06.531Z,933.73
2018-06-21T01:29:18.115Z,933.76
2018-06-21T01:29:31.084Z,933.74
2018-06-21T01:29:44.113Z,933.74
2018-06-21T01:29:57.100Z,933.78
2018-06-21T01:30:09.621Z,933.73
2018-06-21T01:30:21.723Z,933.71
2018-06-21T01:30:34.213Z,933.72
2018-06-21T01:30:46.705Z,933.73
2018-06-21T01:30:59.654Z,933.77
2018-06-21T01:31:12.127Z,933.77
2018-06-21T01:31:24.668Z,933.72
2018-06-21T01:31:36.242Z,933.73
2018-06-21T01:31:49.196Z,933.72
2018-06-21T01:32:02.292Z,933.75
2018-06-21T01:32:15.203Z,933.73
2018-06-21T01:32:27.702Z,933.73
2018-06-21T01:32:40.215Z,933.76
2018-06-21T01:32:52.853Z,933.74
2018-06-21T01:33:05.358Z,933.73
2018-06-21T01:33:17.487Z,933.74
2018-06-21T01:33:30.039Z,933.77
2018-06-21T01:33:43.039Z,933.73
2018-06-21T01:33:55.636Z,933.72
2018-06-21T01:34:08.130Z,933.74
2018-06-21T01:34:20.605Z,933.75
2018-06-21T01:34:33.591Z,933.71
2018-06-21T01:34:46.641Z,933.73
2018-06-21T01:34:58.311Z,933.73
2018-06-21T01:35:10.766Z,933.7
2018-06-21T01:35:23.695Z,933.7
2018-06-21T01:35:35.719Z,933.76
2018-06-21T01:35:48.351Z,933.72
2018-06-21T01:36:00.838Z,933.71
2018-06-21T01:36:12.878Z,933.74
2018-06-21T01:36:26.003Z,933.72
2018-06-21T01:36:38.088Z,933.73
2018-06-21T01:36:51.220Z,933.75
2018-06-21T01:37:03.751Z,933.7
2018-06-21T01:37:15.876Z,933.72
2018-06-21T01:37:27.882Z,933.7
2018-06-21T01:37:40.306Z,933.72
2018-06-21T01:37:53.246Z,933.71
2018-06-21T01:38:05.763Z,933.74
2018-06-21T01:38:17.732Z,933.71
2018-06-21T01:38:30.779Z,933.71
2018-06-21T01:38:43.932Z,933.71
2018-06-21T01:38:56.965Z,933.7
2018-06-21T01:39:10.437Z,933.72
2018-06-21T01:39:22.945Z,933.69
2018-06-21T01:39:36.151Z,933.75
2018-06-21T01:39:48.747Z,933.75
2018-06-21T01:40:01.719Z,933.69
2018-06-21T01:40:13.822Z,933.7
2018-06-21T01:40:26.399Z,933.69
2018-06-21T01:40:38.539Z,933.73
2018-06-21T01:40:51.053Z,933.7
2018-06-21T01:41:04.033Z,933.72
2018-06-21T01:41:15.631Z,933.68
2018-06-21T01:41:28.572Z,933.72
2018-06-21T01:41:40.997Z,933.72
2018-06-21T01:41:53.042Z,933.76
2018-06-21T01:42:06.038Z,933.7
2018-06-21T01:42:18.525Z,933.7
2018-06-21T01:42:31.022Z,933.71
2018-06-21T01:42:44.064Z,933.69
2018-06-21T01:42:56.572Z,933.75
2018-06-21T01:43:09.546Z,933.76
2018-06-21T01:43:22.623Z,933.68
2018-06-21T01:43:35.084Z,933.69
2018-06-21T01:43:47.561Z,933.74
2018-06-21T01:44:00.056Z,933.73
2018-06-21T01:44:12.604Z,933.73
2018-06-21T01:44:25.115Z,933.72
2018-06-21T01:44:38.064Z,933.72
2018-06-21T01:44:51.071Z,933.68
2018-06-21T01:45:04.133Z,933.73
2018-06-21T01:45:17.047Z,933.74
2018-06-21T01:45:30.007Z,933.72
2018-06-21T01:45:42.075Z,933.75
2018-06-21T01:45:54.533Z,933.74
2018-06-21T01:46:06.568Z,933.75
2018-06-21T01:46:19.519Z,933.76
2018-06-21T01:46:32.569Z,933.77
2018-06-21T01:46:45.531Z,933.73
2018-06-21T01:46:57.568Z,933.75
2018-06-21T01:47:10.076Z,933.75
2018-06-21T01:47:23.016Z,933.73
2018-06-21T01:47:35.107Z,933.76
2018-06-21T01:47:48.135Z,933.74
2018-06-21T01:47:59.692Z,933.78
2018-06-21T01:48:12.699Z,933.77
2018-06-21T01:48:25.220Z,933.75
2018-06-21T01:48:37.698Z,933.73
2018-06-21T01:48:49.729Z,933.72
2018-06-21T01:49:02.677Z,933.74
2018-06-21T01:49:15.733Z,933.75
2018-06-21T01:49:28.723Z,933.76
2018-06-21T01:49:41.632Z,933.75
2018-06-21T01:49:54.596Z,933.74
2018-06-21T01:50:07.137Z,933.77
2018-06-21T01:50:18.707Z,933.77
2018-06-21T01:50:31.702Z,933.76
2018-06-21T01:50:44.665Z,933.76
2018-06-21T01:50:57.186Z,933.8
2018-06-21T01:51:09.679Z,933.77
2018-06-21T01:51:21.680Z,933.8
2018-06-21T01:51:34.225Z,933.82
2018-06-21T01:51:47.172Z,933.78
2018-06-21T01:51:59.688Z,933.79
2018-06-21T01:52:12.202Z,933.79
2018-06-21T01:52:25.209Z,933.81
2018-06-21T01:52:38.204Z,933.78
2018-06-21T01:52:50.677Z,933.81
2018-06-21T01:53:02.729Z,933.81
2018-06-21T01:53:15.694Z,933.84
2018-06-21T01:53:28.721Z,933.79
2018-06-21T01:53:41.633Z,933.8
2018-06-21T01:53:54.250Z,933.79
2018-06-21T01:54:07.250Z,933.82
2018-06-21T01:54:19.905Z,933.82
2018-06-21T01:54:32.304Z,933.79
2018-06-21T01:54:44.815Z,933.82
2018-06-21T01:54:57.356Z,933.82
2018-06-21T01:55:09.479Z,933.79
2018-06-21T01:55:22.037Z,933.79
2018-06-21T01:55:35.017Z,933.81
2018-06-21T01:55:47.951Z,933.79
2018-06-21T01:56:00.478Z,933.79
2018-06-21T01:56:12.501Z,933.8
2018-06-21T01:56:25.484Z,933.79
2018-06-21T01:56:38.450Z,933.81
2018-06-21T01:56:50.501Z,933.79
2018-06-21T01:57:02.533Z,933.81
2018-06-21T01:57:14.124Z,933.78
2018-06-21T01:57:26.622Z,933.77
2018-06-21T01:57:39.180Z,933.73
2018-06-21T01:57:52.110Z,933.77
2018-06-21T01:58:05.169Z,933.78
2018-06-21T01:58:18.162Z,933.76
2018-06-21T01:58:30.653Z,933.78
2018-06-21T01:58:43.608Z,933.72
2018-06-21T01:58:56.119Z,933.72
2018-06-21T01:59:08.126Z,933.74
2018-06-21T01:59:20.618Z,933.71
2018-06-21T01:59:33.118Z,933.72
2018-06-21T01:59:45.698Z,933.72
2018-06-21T01:59:58.630Z,933.68
2018-06-21T02:00:10.229Z,933.7
2018-06-21T02:00:23.178Z,933.7
2018-06-21T02:00:35.402Z,933.68
2018-06-21T02:00:47.898Z,933.71
2018-06-21T02:01:00.884Z,933.7
2018-06-21T02:01:13.356Z,933.67
2018-06-21T02:01:25.888Z,933.7
2018-06-21T02:01:38.881Z,933.7
2018-06-21T02:01:51.414Z,933.72
2018-06-21T02:02:04.399Z,933.71
2018-06-21T02:02:17.373Z,933.73
2018-06-21T02:02:30.343Z,933.71
2018-06-21T02:02:42.849Z,933.69
2018-06-21T02:02:54.911Z,933.71
2018-06-21T02:03:07.884Z,933.68
2018-06-21T02:03:20.395Z,933.68
2018-06-21T02:03:33.454Z,933.68
2018-06-21T02:03:45.950Z,933.72
2018-06-21T02:03:58.471Z,933.69
2018-06-21T02:04:11.408Z,933.69
2018-06-21T02:04:24.397Z,933.69
2018-06-21T02:04:36.432Z,933.65
2018-06-21T02:04:48.948Z,933.68
2018-06-21T02:05:01.861Z,933.69
2018-06-21T02:05:14.352Z,933.69
2018-06-21T02:05:27.335Z,933.7
2018-06-21T02:05:40.255Z,933.7
2018-06-21T02:05:52.747Z,933.67
2018-06-21T02:06:05.705Z,933.67
2018-06-21T02:06:18.188Z,933.68
2018-06-21T02:06:30.627Z,933.68
2018-06-21T02:06:43.573Z,933.66
2018-06-21T02:06:56.058Z,933.68
2018-06-21T02:07:08.124Z,933.67
2018-06-21T02:07:20.118Z,933.65
2018-06-21T02:07:33.095Z,933.65
2018-06-21T02:07:45.602Z,933.66
2018-06-21T02:07:58.684Z,933.65
2018-06-21T02:08:12.222Z,933.67
2018-06-21T02:08:24.748Z,933.66
2018-06-21T02:08:37.774Z,933.7
2018-06-21T02:08:50.967Z,933.68
2018-06-21T02:09:03.978Z,933.69
2018-06-21T02:09:16.906Z,933.67
2018-06-21T02:09:30.768Z,933.67
2018-06-21T02:09:43.315Z,933.68
2018-06-21T02:09:55.871Z,933.65
2018-06-21T02:10:08.424Z,933.66
2018-06-21T02:10:21.353Z,933.65
2018-06-21T02:10:34.324Z,933.7
2018-06-21T02:10:46.823Z,933.67
2018-06-21T02:10:58.857Z,933.68
2018-06-21T02:11:11.877Z,933.64
2018-06-21T02:11:24.512Z,933.65
2018-06-21T02:11:36.087Z,933.64
2018-06-21T02:11:48.597Z,933.64
2018-06-21T02:12:01.603Z,933.62
2018-06-21T02:12:14.082Z,933.64
2018-06-21T02:12:27.066Z,933.59
2018-06-21T02:12:39.072Z,933.63
2018-06-21T02:12:51.612Z,933.62
2018-06-21T02:13:04.128Z,933.63
2018-06-21T02:13:16.652Z,933.61
2018-06-21T02:13:29.593Z,933.61
2018-06-21T02:13:42.146Z,933.6
2018-06-21T02:13:55.082Z,933.6
2018-06-21T02:14:07.552Z,933.58
2018-06-21T02:14:20.522Z,933.57
2018-06-21T02:14:32.573Z,933.59
2018-06-21T02:14:45.071Z,933.61
2018-06-21T02:14:57.558Z,933.61
2018-06-21T02:15:10.453Z,933.61
2018-06-21T02:15:23.423Z,933.57
2018-06-21T02:15:36.379Z,933.59
2018-06-21T02:15:49.369Z,933.58
2018-06-21T02:16:01.375Z,933.56
2018-06-21T02:16:14.395Z,933.57
2018-06-21T02:16:26.889Z,933.56
2018-06-21T02:16:39.808Z,933.56
2018-06-21T02:16:52.765Z,933.59
2018-06-21T02:17:05.783Z,933.58
2018-06-21T02:17:18.759Z,933.58
2018-06-21T02:17:31.726Z,933.6
2018-06-21T02:17:44.705Z,933.57
2018-06-21T02:17:57.229Z,933.57
2018-06-21T02:18:10.225Z,933.57
2018-06-21T02:18:22.697Z,933.54
2018-06-21T02:18:35.691Z,933.58
2018-06-21T02:18:48.192Z,933.57
2018-06-21T02:19:01.132Z,933.57
2018-06-21T02:19:12.733Z,933.6
2018-06-21T02:19:25.236Z,933.56
2018-06-21T02:19:37.748Z,933.57
2018-06-21T02:19:49.767Z,933.58
2018-06-21T02:20:02.234Z,933.56
2018-06-21T02:20:14.783Z,933.59
2018-06-21T02:20:27.800Z,933.58
2018-06-21T02:20:40.291Z,933.57
2018-06-21T02:20:52.357Z,933.57
2018-06-21T02:21:04.779Z,933.55
2018-06-21T02:21:16.811Z,933.57
2018-06-21T02:21:29.383Z,933.57
2018-06-21T02:21:41.886Z,933.57
2018-06-21T02:21:54.421Z,933.59
2018-06-21T02:22:06.459Z,933.59
2018-06-21T02:22:19.413Z,933.58
2018-06-21T02:22:31.402Z,933.54
2018-06-21T02:22:43.933Z,933.57
2018-06-21T02:22:56.448Z,933.58
2018-06-21T02:23:09.441Z,933.54
2018-06-21T02:23:22.413Z,933.56
2018-06-21T02:23:35.418Z,933.55
2018-06-21T02:23:48.403Z,933.53
2018-06-21T02:24:01.340Z,933.54
2018-06-21T02:24:13.866Z,933.54
2018-06-21T02:24:26.363Z,933.54
2018-06-21T02:24:39.310Z,933.54
2018-06-21T02:24:51.838Z,933.53
2018-06-21T02:25:03.835Z,933.54
2018-06-21T02:25:16.813Z,933.54
2018-06-21T02:25:29.286Z,933.58
2018-06-21T02:25:41.804Z,933.54
2018-06-21T02:25:54.787Z,933.55
2018-06-21T02:26:07.321Z,933.54
2018-06-21T02:26:20.262Z,933.55
2018-06-21T02:26:32.762Z,933.58
2018-06-21T02:26:45.250Z,933.57
2018-06-21T02:26:56.824Z,933.53
2018-06-21T02:27:09.337Z,933.54
2018-06-21T02:27:22.315Z,933.55
2018-06-21T02:27:35.285Z,933.54
2018-06-21T02:27:48.209Z,933.52
2018-06-21T02:28:00.677Z,933.55
2018-06-21T02:28:12.752Z,933.55
2018-06-21T02:28:25.766Z,933.53
2018-06-21T02:28:38.291Z,933.53
2018-06-21T02:28:50.755Z,933.53
2018-06-21T02:29:02.814Z,933.53
2018-06-21T02:29:15.333Z,933.52
2018-06-21T02:29:27.795Z,933.54
2018-06-21T02:29:40.774Z,933.54
2018-06-21T02:29:53.251Z,933.51
2018-06-21T02:30:05.293Z,933.51
2018-06-21T02:30:18.295Z,933.55
2018-06-21T02:30:31.273Z,933.51
2018-06-21T02:30:44.229Z,933.5
2018-06-21T02:30:56.735Z,933.51
2018-06-21T02:31:09.307Z,933.49
2018-06-21T02:31:21.800Z,933.48
2018-06-21T02:31:34.906Z,933.49
2018-06-21T02:31:47.882Z,933.48
2018-06-21T02:32:00.921Z,933.44
2018-06-21T02:32:13.917Z,933.43
2018-06-21T02:32:26.419Z,933.44
2018-06-21T02:32:38.884Z,933.45
2018-06-21T02:32:51.844Z,933.43
2018-06-21T02:33:04.810Z,933.43
2018-06-21T02:33:17.866Z,933.44
2018-06-21T02:33:30.425Z,933.45
2018-06-21T02:33:43.446Z,933.43
2018-06-21T02:33:56.010Z,933.43
2018-06-21T02:34:08.105Z,933.41
2018-06-21T02:34:20.799Z,933.42
2018-06-21T02:34:33.438Z,933.42
2018-06-21T02:34:46.424Z,933.41
2018-06-21T02:34:58.897Z,933.44
2018-06-21T02:35:11.821Z,933.42
2018-06-21T02:35:23.894Z,933.43
2018-06-21T02:35:36.456Z,933.4
2018-06-21T02:35:49.480Z,933.39
2018-06-21T02:36:01.539Z,933.42
2018-06-21T02:36:14.476Z,933.42
2018-06-21T02:36:27.386Z,933.44
2018-06-21T02:36:40.354Z,933.42
2018-06-21T02:36:52.872Z,933.43
2018-06-21T02:37:05.875Z,933.43
2018-06-21T02:37:18.341Z,933.43
2018-06-21T02:37:31.316Z,933.42
2018-06-21T02:37:44.285Z,933.4
2018-06-21T02:37:56.817Z,933.44